Observations for BENSON RAF, United Kingdom (EGUB)

EGUB 231050Z 18008KT 9999 -DZ BKN005 14/13 Q1016 YLO1 TEMPO SCT007 GRN  
EGUB 230950Z 18009KT 9999 BKN006 OVC060 13/12 Q1016 YLO1 TEMPO 6000 -RADZ YLO1  
EGUB 230933Z 18010KT 9999 BKN006 13/12 Q1016 YLO1 TEMPO SCT010 GRN
EGUB 230850Z 19011KT 9999 SCT007 BKN028 13/12 Q1016 GRN NOSIG   
EGUB 230814Z 18010KT 9999 SCT009 OVC023 12/11 Q1017 GRN TEMPO 6000 -RADZ GRN
EGUB 230750Z 18009KT 6000 -RADZ SCT008 OVC028 12/11 Q1017 GRN TEMPO 9999 NSW GRN
EGUB 230727Z 18009KT 9999 SCT010 SCT030 BKN050 12/11 Q1017 GRN TEMPO 7000 -RADZGRN
EGUB 230650Z 19008KT 9999 FEW010 BKN031 OVC060 12/10 Q1017 BLU BECMG SCT010 GRN 
EGUB 230550Z 19005KT 9999 BKN032 BKN070 11/09 Q1017 BLU BECMG SCT012 GRN
EGUB 230450Z AUTO 17005KT 9999 // FEW060/// OVC120/// 09/08 Q1017   
EGUB 230350Z AUTO 20008KT 9999 // FEW080/// SCT150/// BKN190/// 10/09 Q1018 
EGUB 230250Z AUTO 22007KT 9999 // FEW027/// BKN034/// 11/09 Q1018   
EGUB 230150Z AUTO 20006KT 9999 // BKN044/// BKN230/// 10/08 Q1018   
EGUB 230050Z AUTO 21005KT 9999 // SCT042/// BKN230/// 09/08 Q1018   
EGUB 222350Z AUTO 20006KT 9999 // BKN050/// BKN240/// 09/07 Q1018   
EGUB 222250Z AUTO 23007KT 9999 // OVC050/// 11/07 Q1018 
EGUB 222150Z AUTO 25010KT 9999 // OVC050/// 11/07 Q1018 
EGUB 222050Z AUTO 25012KT 9999 // OVC050/// 11/08 Q1018 
EGUB 221950Z AUTO 24006KT 9999 // BKN050/// 10/07 Q1018 
EGUB 221850Z AUTO 25006KT 9999 // SCT050/// 10/07 Q1017 
EGUB 221750Z AUTO 33002KT 9999 // FEW028/// 10/08 Q1016 
EGUB 221650Z AUTO 27006KT 9999 // SCT033/// BKN050/// 11/08 Q1016   
EGUB 221550Z AUTO 27013KT 9999 // BKN032/// BKN050/// 12/07 Q1015   
EGUB 221450Z AUTO 28008KT 9999 // FEW029/// BKN044/// 11/08 Q1015   
EGUB 221350Z AUTO 26009KT 9999 // SCT038/// BKN048/// 12/04 Q1015   
EGUB 221250Z AUTO 27012KT 9999 // FEW044/// BKN050/// 13/03 Q1014   
EGUB 221150Z AUTO 27014G25KT 9999 // SCT043/// BKN050/// 12/02 Q1014
EGUB 221050Z AUTO 27015G25KT 9999 // BKN043/// SCT050/// 12/03 Q1013